weather.gov     
National Weather Service

Terminal Aerodrome Forecast
NWS Homepage
This page is being discontinued on March 12, 2014.
The same data is available at this site. Please update your bookmarks.
Thank you, and we apologize for the inconvenience.
Please send an email to SR-SRH.Webmaster@noaa.gov with any concerns.


Current Version
Previous Version:    01  02  03  04  05  06  07  08  09  10  11  12  13  14  15  16  17  18  19  20  21  22  23  
[Printable]
677
FTUS44 KHGX 021120
TAFSGR
TAF
KSGR 021120Z 0212/0312 15006KT P6SM VCSH SCT019 SCT035
     FM021600 14009KT P6SM VCTS SCT035CB
      TEMPO 0217/0221 TSRA BKN040CB
     FM022300 15010KT P6SM SCT040
     FM030900 15003KT P6SM SCT015=


677
FTUS44 KHGX 021120
TAFSGR
TAF
KSGR 021120Z 0212/0312 15006KT P6SM VCSH SCT019 SCT035
     FM021600 14009KT P6SM VCTS SCT035CB
      TEMPO 0217/0221 TSRA BKN040CB
     FM022300 15010KT P6SM SCT040
     FM030900 15003KT P6SM SCT015=




U.S. Dept. of Commerce
NOAA National Weather Service
1325 East West Highway
Silver Spring, MD 20910
E-mail: w-nws.webmaster@noaa.gov
Page last modified: May 16, 2007
NATIONAL WEATHER SERVICE: for Safety, for Work, for Fun - FOR LIFE